Time;durP1;ratioP1;P1;durP2;ratioP2;P2;SDS_P1;SDS_P2;PMS_P1;PMS_P2;Temp;Humidity;BMP_temperature;BMP_pressure;BME280_temperature;BME280_humidity;BME280_pressure;Samples;Min_cycle;Max_cycle;Signal;HPM_P1;HPM_P2
2024/01/12 00:01:47;;;;;;;14.93;13.40;;;-0.60;99.90;;;;;;5039973;28;20475;-60
2024/01/12 00:04:16;;;;;;;17.07;13.80;;;-0.60;99.90;;;;;;5042167;28;20502;-60
2024/01/12 00:06:45;;;;;;;16.43;14.20;;;-0.60;99.90;;;;;;5019500;28;21185;-61
2024/01/12 00:09:14;;;;;;;14.80;13.30;;;-0.60;99.90;;;;;;5018174;28;20867;-60
2024/01/12 00:11:42;;;;;;;16.20;13.27;;;-0.60;99.90;;;;;;5019279;28;20564;-60
2024/01/12 00:14:10;;;;;;;17.70;14.27;;;-0.60;99.90;;;;;;5018466;28;20472;-60
2024/01/12 00:16:41;;;;;;;17.00;14.07;;;-0.60;99.90;;;;;;5017479;28;20499;-60
2024/01/12 00:19:11;;;;;;;17.30;14.47;;;-0.70;99.90;;;;;;5017108;28;20562;-60
2024/01/12 00:21:39;;;;;;;17.73;14.20;;;-0.70;99.90;;;;;;5018977;28;20499;-60
2024/01/12 00:24:07;;;;;;;17.67;14.30;;;-0.60;99.90;;;;;;5019845;28;21035;-60
2024/01/12 00:26:35;;;;;;;15.47;13.80;;;-0.70;99.90;;;;;;5010623;28;20496;-60
2024/01/12 00:29:03;;;;;;;15.70;13.80;;;-0.70;99.90;;;;;;5018519;28;20844;-60
2024/01/12 00:31:31;;;;;;;14.87;12.90;;;-0.70;99.90;;;;;;5018001;28;20496;-60
2024/01/12 00:33:59;;;;;;;16.70;13.57;;;-0.70;99.90;;;;;;5017357;28;20567;-60
2024/01/12 00:36:28;;;;;;;16.37;13.60;;;-0.70;99.90;;;;;;5016251;28;21019;-60
2024/01/12 00:38:57;;;;;;;15.30;13.30;;;-0.70;99.90;;;;;;5017626;28;20563;-60
2024/01/12 00:41:26;;;;;;;15.30;13.43;;;-0.70;99.90;;;;;;5019044;28;21011;-60
2024/01/12 00:43:54;;;;;;;18.60;13.20;;;-0.70;99.90;;;;;;5016854;28;20472;-60
2024/01/12 00:46:21;;;;;;;14.63;13.03;;;-0.70;99.90;;;;;;5023945;28;20503;-60
2024/01/12 00:48:50;;;;;;;16.90;14.03;;;-0.80;99.90;;;;;;5036455;28;20966;-64
2024/01/12 00:51:18;;;;;;;15.90;13.60;;;-0.70;99.90;;;;;;5023256;28;20496;-60
2024/01/12 00:53:48;;;;;;;16.50;13.80;;;-0.70;99.90;;;;;;5017612;28;20533;-60
2024/01/12 00:56:16;;;;;;;16.23;13.70;;;-0.80;99.90;;;;;;5035820;28;20540;-60
2024/01/12 00:58:44;;;;;;;37.73;13.90;;;-0.70;99.90;;;;;;5044841;28;20852;-60
2024/01/12 01:01:12;;;;;;;15.40;12.93;;;-0.70;99.90;;;;;;5042142;28;20573;-60
2024/01/12 01:03:40;;;;;;;15.10;13.30;;;-0.80;99.90;;;;;;5040744;28;20843;-60
2024/01/12 01:06:08;;;;;;;14.60;12.73;;;-0.80;99.90;;;;;;5023820;28;21060;-60
2024/01/12 01:08:36;;;;;;;15.23;13.63;;;-0.80;99.90;;;;;;5016654;28;20477;-60
2024/01/12 01:11:06;;;;;;;14.30;12.57;;;-0.90;99.90;;;;;;5015174;28;20562;-60
2024/01/12 01:13:36;;;;;;;16.70;13.60;;;-0.90;99.90;;;;;;5016002;28;20557;-60
2024/01/12 01:16:04;;;;;;;14.13;12.63;;;-0.90;99.90;;;;;;5012647;28;20565;-60
2024/01/12 01:18:32;;;;;;;15.73;13.77;;;-0.90;99.90;;;;;;5015609;28;20928;-60
2024/01/12 01:21:05;;;;;;;14.10;12.60;;;-0.90;99.90;;;;;;5013735;28;20494;-61
2024/01/12 01:23:37;;;;;;;13.93;11.63;;;-0.90;99.90;;;;;;5017094;28;20493;-59
2024/01/12 01:26:09;;;;;;;13.43;12.03;;;-0.90;99.90;;;;;;5016612;28;20482;-60
2024/01/12 01:28:36;;;;;;;14.00;12.17;;;-0.90;99.90;;;;;;5016702;28;20559;-60
2024/01/12 01:31:05;;;;;;;14.50;11.90;;;-0.90;99.90;;;;;;5016584;28;20598;-60
2024/01/12 01:33:33;;;;;;;13.37;12.00;;;-0.90;99.90;;;;;;5016883;28;20473;-60
2024/01/12 01:36:01;;;;;;;15.10;12.60;;;-0.90;99.90;;;;;;5015634;28;20501;-60
2024/01/12 01:38:29;;;;;;;13.57;12.17;;;-1.00;99.90;;;;;;5014954;28;20554;-60
2024/01/12 01:40:57;;;;;;;12.13;10.93;;;-1.00;99.90;;;;;;5017551;28;20848;-60
2024/01/12 01:43:27;;;;;;;12.87;11.50;;;-1.00;99.90;;;;;;5017316;28;20468;-60
2024/01/12 01:45:55;;;;;;;13.07;11.07;;;-1.00;99.90;;;;;;5016745;28;20530;-60
2024/01/12 01:48:23;;;;;;;13.40;12.00;;;-1.00;99.90;;;;;;5015063;28;20922;-60
2024/01/12 01:50:52;;;;;;;14.57;12.47;;;-1.00;99.90;;;;;;5014150;28;20596;-60
2024/01/12 01:53:20;;;;;;;14.93;12.50;;;-1.00;99.90;;;;;;5015961;28;20480;-59
2024/01/12 01:55:49;;;;;;;15.90;12.63;;;-1.00;99.90;;;;;;5012646;28;20565;-60
2024/01/12 01:58:17;;;;;;;12.63;11.43;;;-1.00;99.90;;;;;;5017004;28;20460;-60
2024/01/12 02:00:48;;;;;;;17.17;13.17;;;-1.00;99.90;;;;;;5015522;28;20582;-60
2024/01/12 02:03:16;;;;;;;13.77;11.50;;;-1.00;99.90;;;;;;5017097;28;20490;-60
2024/01/12 02:05:48;;;;;;;14.33;11.87;;;-1.00;99.90;;;;;;5015536;28;21003;-60
2024/01/12 02:08:17;;;;;;;13.07;11.10;;;-1.00;99.90;;;;;;5014946;28;20562;-60
2024/01/12 02:10:45;;;;;;;12.23;11.00;;;-1.00;99.90;;;;;;5015634;28;20491;-60
2024/01/12 02:13:14;;;;;;;12.67;10.43;;;-1.00;99.90;;;;;;5018649;28;21546;-59
2024/01/12 02:15:42;;;;;;;13.00;11.13;;;-1.00;99.90;;;;;;5017694;28;20510;-59
2024/01/12 02:18:11;;;;;;;12.93;11.53;;;-1.00;99.90;;;;;;5017649;28;20471;-60
2024/01/12 02:20:39;;;;;;;13.13;10.97;;;-1.10;99.90;;;;;;5018953;28;20490;-60
2024/01/12 02:23:09;;;;;;;13.63;11.20;;;-1.10;99.90;;;;;;5019750;28;20475;-60
2024/01/12 02:25:37;;;;;;;15.20;11.30;;;-1.10;99.90;;;;;;5017646;28;21067;-60
2024/01/12 02:28:06;;;;;;;13.37;11.50;;;-1.10;99.90;;;;;;5024235;28;20491;-60
2024/01/12 02:30:34;;;;;;;13.50;10.60;;;-1.10;99.90;;;;;;5033832;28;21039;-59
2024/01/12 02:33:05;;;;;;;15.70;11.20;;;-1.10;99.90;;;;;;5033752;28;20464;-59
2024/01/12 02:35:34;;;;;;;15.10;11.20;;;-1.10;99.90;;;;;;5021615;28;20585;-60
2024/01/12 02:38:02;;;;;;;12.90;10.47;;;-1.10;99.90;;;;;;5018436;28;20780;-59
2024/01/12 02:40:31;;;;;;;20.33;11.70;;;-1.10;99.90;;;;;;5019911;28;21108;-59
2024/01/12 02:43:00;;;;;;;21.13;12.00;;;-1.10;99.90;;;;;;5017977;28;21071;-60
2024/01/12 02:45:28;;;;;;;13.73;11.53;;;-1.10;99.90;;;;;;5018889;28;20504;-60
2024/01/12 02:47:56;;;;;;;12.33;10.70;;;-1.10;99.90;;;;;;5020737;28;21091;-60
2024/01/12 02:50:24;;;;;;;15.10;11.27;;;-1.10;99.90;;;;;;5018001;28;20546;-59
2024/01/12 02:52:52;;;;;;;13.43;10.67;;;-1.10;99.90;;;;;;5018733;28;20976;-59
2024/01/12 02:55:20;;;;;;;14.20;11.47;;;-1.10;99.90;;;;;;5036846;28;20574;-59
2024/01/12 02:57:50;;;;;;;14.17;10.43;;;-1.10;99.90;;;;;;5035739;28;20469;-58
2024/01/12 03:00:18;;;;;;;14.00;10.60;;;-1.10;99.90;;;;;;5033196;28;20506;-59
2024/01/12 03:02:49;;;;;;;16.33;11.57;;;-1.10;99.90;;;;;;5031153;28;20468;-60
2024/01/12 03:05:17;;;;;;;22.43;11.70;;;-1.10;99.90;;;;;;5030818;28;20486;-60
2024/01/12 03:07:45;;;;;;;16.30;12.03;;;-1.10;99.90;;;;;;5023910;28;20487;-60
2024/01/12 03:10:16;;;;;;;15.90;11.07;;;-1.10;99.90;;;;;;5026254;28;20510;-60
2024/01/12 03:12:44;;;;;;;13.30;11.03;;;-1.10;99.90;;;;;;5023786;28;20931;-60
2024/01/12 03:15:14;;;;;;;19.10;13.50;;;-1.10;99.90;;;;;;5018424;28;21119;-60
2024/01/12 03:17:42;;;;;;;20.70;14.00;;;-1.10;99.90;;;;;;5019512;28;20813;-60
2024/01/12 03:20:10;;;;;;;18.30;13.73;;;-1.10;99.90;;;;;;5017619;28;20645;-60
2024/01/12 03:22:39;;;;;;;17.00;13.80;;;-1.10;99.90;;;;;;5017496;28;20467;-58
2024/01/12 03:25:07;;;;;;;19.97;14.50;;;-1.10;99.90;;;;;;5018672;28;20479;-60
2024/01/12 03:27:35;;;;;;;19.90;14.03;;;-1.10;99.90;;;;;;5018549;28;20595;-58
2024/01/12 03:30:04;;;;;;;20.10;14.20;;;-1.10;99.90;;;;;;5018912;28;20518;-60
2024/01/12 03:32:33;;;;;;;20.67;14.40;;;-1.10;99.90;;;;;;5018721;28;20533;-60
2024/01/12 03:35:03;;;;;;;25.20;17.43;;;-1.10;99.90;;;;;;5016123;28;20554;-58
2024/01/12 03:37:31;;;;;;;25.67;17.00;;;-1.10;99.90;;;;;;5011027;28;20898;-60
2024/01/12 03:39:59;;;;;;;23.83;17.20;;;-1.10;99.90;;;;;;5016369;28;20516;-60
2024/01/12 03:42:27;;;;;;;19.17;15.10;;;-1.10;99.90;;;;;;5019364;28;20477;-59
2024/01/12 03:44:55;;;;;;;21.70;14.50;;;-1.10;99.90;;;;;;5018043;28;20485;-60
2024/01/12 03:47:23;;;;;;;18.53;14.23;;;-1.10;99.90;;;;;;5016833;28;20558;-59
2024/01/12 03:49:52;;;;;;;18.60;13.50;;;-1.00;99.90;;;;;;5019560;28;20491;-60
2024/01/12 03:52:20;;;;;;;19.47;14.00;;;-1.00;99.90;;;;;;5015330;28;20560;-60
2024/01/12 03:54:48;;;;;;;15.13;12.53;;;-1.10;99.90;;;;;;5018236;28;20503;-60
2024/01/12 03:57:16;;;;;;;19.90;12.90;;;-1.10;99.90;;;;;;5014394;28;20484;-60
2024/01/12 03:59:44;;;;;;;16.83;11.10;;;-1.10;99.90;;;;;;5017545;28;20599;-60
2024/01/12 04:02:13;;;;;;;16.60;11.37;;;-1.10;99.90;;;;;;5014399;28;20475;-60
2024/01/12 04:04:42;;;;;;;16.03;11.93;;;-1.10;99.90;;;;;;5016684;28;20468;-59
2024/01/12 04:07:11;;;;;;;16.20;12.10;;;-1.10;99.90;;;;;;5013799;28;20579;-60
2024/01/12 04:09:39;;;;;;;18.00;11.17;;;-1.10;99.90;;;;;;5016577;28;21012;-59
2024/01/12 04:12:08;;;;;;;15.57;11.23;;;-1.20;99.90;;;;;;5018544;28;20554;-58
2024/01/12 04:14:36;;;;;;;14.50;11.13;;;-1.20;99.90;;;;;;5015259;28;20559;-60
2024/01/12 04:17:05;;;;;;;17.37;11.97;;;-1.20;99.90;;;;;;5016341;28;20481;-60
2024/01/12 04:19:33;;;;;;;16.87;12.17;;;-1.30;99.90;;;;;;5013726;28;20563;-60
2024/01/12 04:22:01;;;;;;;14.30;11.30;;;-1.20;99.90;;;;;;5015979;28;20471;-60
2024/01/12 04:24:30;;;;;;;16.20;12.00;;;-1.20;99.90;;;;;;5017922;28;21169;-60
2024/01/12 04:26:58;;;;;;;15.67;11.63;;;-1.30;99.90;;;;;;5023078;28;20522;-60
2024/01/12 04:29:27;;;;;;;17.40;11.73;;;-1.30;99.90;;;;;;5021562;28;20484;-59
2024/01/12 04:31:55;;;;;;;15.60;11.93;;;-1.30;99.90;;;;;;5024608;28;20984;-60
2024/01/12 04:34:23;;;;;;;15.83;11.80;;;-1.30;99.90;;;;;;5024291;28;20474;-60
2024/01/12 04:36:51;;;;;;;15.73;11.50;;;-1.40;99.90;;;;;;5021340;28;20502;-60
2024/01/12 04:39:19;;;;;;;14.10;10.37;;;-1.40;99.90;;;;;;5024526;28;20466;-59
2024/01/12 04:41:48;;;;;;;15.63;11.00;;;-1.40;99.90;;;;;;5025364;28;20579;-60
2024/01/12 04:44:16;;;;;;;14.73;11.13;;;-1.50;99.90;;;;;;5022357;28;20471;-60
2024/01/12 04:46:44;;;;;;;16.10;11.27;;;-1.50;99.90;;;;;;5017062;28;20488;-59
2024/01/12 04:49:12;;;;;;;19.90;12.57;;;-1.50;99.90;;;;;;5016922;28;20545;-60
2024/01/12 04:51:40;;;;;;;14.10;11.00;;;-1.50;99.90;;;;;;5013946;28;20484;-59
2024/01/12 04:54:09;;;;;;;16.53;11.27;;;-1.50;99.90;;;;;;5016323;28;21028;-60
2024/01/12 04:56:37;;;;;;;15.80;11.40;;;-1.50;99.90;;;;;;5013504;28;20503;-59
2024/01/12 04:59:06;;;;;;;14.30;10.80;;;-1.50;99.90;;;;;;5015615;28;20551;-60
2024/01/12 05:01:34;;;;;;;15.43;11.13;;;-1.40;99.90;;;;;;5013523;28;20574;-60
2024/01/12 05:04:03;;;;;;;16.10;12.03;;;-1.40;99.90;;;;;;5014997;28;21033;-60
2024/01/12 05:06:31;;;;;;;13.43;10.60;;;-1.50;99.90;;;;;;5013172;28;20812;-60
2024/01/12 05:08:59;;;;;;;15.47;12.00;;;-1.50;99.90;;;;;;5019127;28;20495;-61
2024/01/12 05:11:29;;;;;;;14.67;11.20;;;-1.40;99.90;;;;;;5023809;28;20506;-60
2024/01/12 05:13:57;;;;;;;14.90;10.90;;;-1.40;99.90;;;;;;5020999;28;20558;-60
2024/01/12 05:16:26;;;;;;;13.00;9.77;;;-1.40;99.90;;;;;;5017762;28;20555;-60
2024/01/12 05:18:54;;;;;;;13.63;10.10;;;-1.40;99.90;;;;;;5010890;28;21516;-60
2024/01/12 05:21:23;;;;;;;13.77;10.50;;;-1.40;99.90;;;;;;5014961;28;20500;-60
2024/01/12 05:23:51;;;;;;;16.53;10.07;;;-1.40;99.90;;;;;;5014585;28;20502;-59
2024/01/12 05:26:19;;;;;;;15.27;11.07;;;-1.40;99.90;;;;;;5015318;28;21015;-60
2024/01/12 05:28:47;;;;;;;14.47;10.50;;;-1.40;99.90;;;;;;5019116;28;20499;-60
2024/01/12 05:31:16;;;;;;;12.87;10.10;;;-1.40;99.90;;;;;;5017974;28;20519;-60
2024/01/12 05:33:45;;;;;;;15.10;10.50;;;-1.50;99.90;;;;;;5018641;28;20522;-60
2024/01/12 05:36:13;;;;;;;14.03;10.93;;;-1.50;99.90;;;;;;5017846;28;20483;-60
2024/01/12 05:38:41;;;;;;;13.53;10.17;;;-1.50;99.90;;;;;;5015713;28;20500;-60
2024/01/12 05:41:10;;;;;;;14.37;10.10;;;-1.50;99.90;;;;;;5017965;28;20537;-60
2024/01/12 05:43:38;;;;;;;13.57;10.00;;;-1.50;99.90;;;;;;5010360;28;20488;-59
2024/01/12 05:46:07;;;;;;;13.50;9.87;;;-1.50;99.90;;;;;;5026704;28;20482;-59
2024/01/12 05:48:35;;;;;;;12.93;9.83;;;-1.50;99.90;;;;;;5035834;28;20474;-59
2024/01/12 05:51:05;;;;;;;14.60;10.13;;;-1.50;99.90;;;;;;5038003;28;20486;-60
2024/01/12 05:53:33;;;;;;;15.97;10.57;;;-1.50;99.90;;;;;;5038656;28;20471;-59
2024/01/12 05:56:01;;;;;;;14.03;10.67;;;-1.60;99.90;;;;;;5023690;28;20856;-60
2024/01/12 05:58:30;;;;;;;14.30;10.60;;;-1.60;99.90;;;;;;5017393;28;20507;-59
2024/01/12 06:00:58;;;;;;;13.20;10.50;;;-1.60;99.90;;;;;;5016405;28;21027;-60
2024/01/12 06:03:28;;;;;;;13.23;9.87;;;-1.60;99.90;;;;;;5015958;28;20471;-60
2024/01/12 06:05:56;;;;;;;14.20;10.10;;;-1.70;99.90;;;;;;5017462;28;20498;-59
2024/01/12 06:08:26;;;;;;;13.83;8.90;;;-1.60;99.90;;;;;;5018855;28;20753;-59
2024/01/12 06:10:54;;;;;;;13.43;9.67;;;-1.60;99.90;;;;;;5012511;28;21000;-64
2024/01/12 06:13:22;;;;;;;13.13;9.77;;;-1.60;99.90;;;;;;5020260;28;20492;-60
2024/01/12 06:15:50;;;;;;;11.90;8.90;;;-1.60;99.90;;;;;;5019252;28;20562;-60
2024/01/12 06:18:21;;;;;;;13.53;9.87;;;-1.70;99.90;;;;;;5013465;28;20529;-60
2024/01/12 06:20:49;;;;;;;13.80;8.73;;;-1.70;99.90;;;;;;5016341;28;20494;-59
2024/01/12 06:23:17;;;;;;;13.40;8.70;;;-1.70;99.90;;;;;;5005697;28;20504;-60
2024/01/12 06:25:46;;;;;;;14.90;9.43;;;-1.70;99.90;;;;;;5000324;28;20491;-60
2024/01/12 06:28:14;;;;;;;12.80;9.37;;;-1.80;99.90;;;;;;5012511;28;20471;-59
2024/01/12 06:30:42;;;;;;;14.60;9.40;;;-1.80;99.90;;;;;;5011426;28;20491;-59
2024/01/12 06:33:14;;;;;;;13.10;9.70;;;-1.70;99.90;;;;;;5016980;28;20523;-60
2024/01/12 06:35:42;;;;;;;15.97;10.93;;;-1.80;99.90;;;;;;5014460;28;20891;-60
2024/01/12 06:38:10;;;;;;;15.67;10.93;;;-1.80;99.90;;;;;;5014422;28;20471;-60
2024/01/12 06:40:38;;;;;;;16.33;11.10;;;-1.80;99.90;;;;;;5019441;28;20563;-59
2024/01/12 06:43:08;;;;;;;16.60;11.23;;;-1.80;99.90;;;;;;5018084;28;20986;-60
2024/01/12 06:45:36;;;;;;;15.33;11.07;;;-1.80;99.90;;;;;;5016849;28;20484;-60
2024/01/12 06:48:04;;;;;;;18.07;11.60;;;-1.80;99.90;;;;;;5016966;28;21000;-60
2024/01/12 06:50:33;;;;;;;19.53;11.57;;;-1.80;99.90;;;;;;5017081;28;21047;-60
2024/01/12 06:53:04;;;;;;;18.43;11.17;;;-1.80;99.90;;;;;;5018457;28;20495;-60
2024/01/12 06:55:32;;;;;;;16.40;11.13;;;-1.80;99.90;;;;;;5018824;28;20489;-60
2024/01/12 06:58:00;;;;;;;17.63;10.73;;;-1.80;99.90;;;;;;5013835;28;20487;-60
2024/01/12 07:00:29;;;;;;;17.47;10.90;;;-1.80;99.90;;;;;;5018584;28;20491;-60
2024/01/12 07:02:57;;;;;;;17.90;10.93;;;-1.80;99.90;;;;;;5019305;28;20487;-60
2024/01/12 07:05:26;;;;;;;20.60;10.43;;;-1.80;99.90;;;;;;5018152;28;20490;-60
2024/01/12 07:07:54;;;;;;;18.37;11.00;;;-1.80;99.90;;;;;;5028098;28;20499;-59
2024/01/12 07:10:22;;;;;;;17.90;10.73;;;-1.80;99.90;;;;;;5038442;28;20495;-60
2024/01/12 07:12:51;;;;;;;16.43;10.30;;;-1.80;99.90;;;;;;5036689;28;20474;-59
2024/01/12 07:15:21;;;;;;;14.30;9.10;;;-1.90;99.90;;;;;;5024076;28;20519;-60
2024/01/12 07:17:50;;;;;;;17.63;10.77;;;-1.90;99.90;;;;;;5018236;28;20894;-60
2024/01/12 07:20:19;;;;;;;17.50;10.63;;;-1.90;99.90;;;;;;5017171;28;20495;-60
2024/01/12 07:22:47;;;;;;;17.80;10.40;;;-1.80;99.90;;;;;;5018549;28;20472;-60
2024/01/12 07:25:15;;;;;;;19.30;11.57;;;-1.80;99.90;;;;;;5013688;28;20488;-61
2024/01/12 07:27:43;;;;;;;12.70;8.93;;;-1.80;99.90;;;;;;5018355;28;20555;-61
2024/01/12 07:30:16;;;;;;;17.47;9.20;;;-1.70;99.90;;;;;;5018935;28;20494;-59
2024/01/12 07:32:44;;;;;;;13.63;9.17;;;-1.70;99.90;;;;;;5018464;28;20479;-59
2024/01/12 07:35:14;;;;;;;14.53;9.00;;;-1.70;99.90;;;;;;5019145;28;20495;-61
2024/01/12 07:37:42;;;;;;;12.30;7.77;;;-1.60;99.90;;;;;;5017544;28;20568;-61
2024/01/12 07:40:12;;;;;;;14.17;8.40;;;-1.60;99.90;;;;;;5017025;28;20854;-60
2024/01/12 07:42:40;;;;;;;15.47;9.00;;;-1.50;99.90;;;;;;5018100;28;20578;-61
2024/01/12 07:45:09;;;;;;;14.17;8.40;;;-1.50;99.90;;;;;;5016777;28;20478;-61
2024/01/12 07:47:37;;;;;;;18.10;9.03;;;-1.40;99.90;;;;;;5010811;28;20568;-61
2024/01/12 07:50:07;;;;;;;16.73;8.63;;;-1.40;99.90;;;;;;5017892;28;20535;-61
2024/01/12 07:52:36;;;;;;;15.80;8.53;;;-1.40;99.90;;;;;;5017322;28;20843;-60
2024/01/12 07:55:04;;;;;;;14.90;8.43;;;-1.30;99.90;;;;;;5014419;28;20588;-60
2024/01/12 07:57:33;;;;;;;14.90;8.90;;;-1.30;99.90;;;;;;5018382;28;20562;-60
2024/01/12 08:00:01;;;;;;;15.40;9.00;;;-1.20;99.90;;;;;;5018389;28;20491;-61
2024/01/12 08:02:29;;;;;;;18.47;9.90;;;-1.20;99.90;;;;;;5017128;28;20479;-60
2024/01/12 08:04:57;;;;;;;17.67;8.67;;;-1.20;99.90;;;;;;5016256;28;20541;-60
2024/01/12 08:07:25;;;;;;;14.00;8.63;;;-1.20;99.90;;;;;;5017786;28;20534;-60
2024/01/12 08:09:55;;;;;;;17.53;9.30;;;-1.20;99.90;;;;;;5016109;28;20524;-60
2024/01/12 08:12:23;;;;;;;13.97;9.00;;;-1.10;99.90;;;;;;5016244;28;20503;-59
2024/01/12 08:14:51;;;;;;;15.60;7.97;;;-1.10;99.90;;;;;;5015534;28;20550;-60
2024/01/12 08:17:19;;;;;;;17.70;8.30;;;-1.10;99.90;;;;;;5015992;28;20514;-60
2024/01/12 08:19:47;;;;;;;19.17;8.70;;;-1.10;99.90;;;;;;5015223;28;20494;-60
2024/01/12 08:22:15;;;;;;;16.60;9.30;;;-1.10;99.90;;;;;;5016811;28;20478;-60
2024/01/12 08:24:43;;;;;;;17.10;7.90;;;-1.10;99.90;;;;;;5016577;28;20855;-60
2024/01/12 08:27:12;;;;;;;20.20;8.80;;;-1.10;99.90;;;;;;5016014;28;20506;-60
2024/01/12 08:29:45;;;;;;;18.20;10.27;;;-1.00;99.90;;;;;;5017618;28;21046;-60
2024/01/12 08:32:14;;;;;;;12.83;8.37;;;-0.90;99.90;;;;;;5015928;28;20492;-63
2024/01/12 08:34:42;;;;;;;19.07;8.67;;;-0.90;99.90;;;;;;5014412;28;21160;-60
2024/01/12 08:37:10;;;;;;;12.07;7.70;;;-0.80;99.90;;;;;;5017797;28;20468;-59
2024/01/12 08:39:38;;;;;;;13.13;8.33;;;-0.80;99.90;;;;;;5016045;28;20483;-60
2024/01/12 08:42:07;;;;;;;13.70;7.60;;;-0.80;99.90;;;;;;5016886;28;20898;-59
2024/01/12 08:44:36;;;;;;;17.00;8.90;;;-0.70;99.90;;;;;;5013898;28;20555;-60
2024/01/12 08:47:05;;;;;;;15.63;8.43;;;-0.70;99.90;;;;;;5015122;28;20722;-60
2024/01/12 08:49:33;;;;;;;16.93;8.17;;;-0.60;99.90;;;;;;5014319;28;20499;-60
2024/01/12 08:52:01;;;;;;;16.97;8.23;;;-0.60;99.90;;;;;;5017470;28;20495;-60
2024/01/12 08:54:29;;;;;;;15.43;9.13;;;-0.50;99.90;;;;;;5015828;28;20518;-60
2024/01/12 08:56:57;;;;;;;15.20;9.40;;;-0.50;99.90;;;;;;5010372;28;21121;-59
2024/01/12 08:59:27;;;;;;;19.97;9.60;;;-0.50;99.90;;;;;;5020719;28;20538;-61
2024/01/12 09:01:57;;;;;;;19.07;9.30;;;-0.40;99.90;;;;;;5018457;28;20977;-60
2024/01/12 09:04:25;;;;;;;16.93;10.03;;;-0.40;99.90;;;;;;5021516;28;20488;-59
2024/01/12 09:06:54;;;;;;;17.87;9.23;;;-0.40;99.90;;;;;;5017157;28;20518;-60
2024/01/12 09:09:22;;;;;;;16.87;8.90;;;-0.30;99.90;;;;;;5016036;28;20483;-59
2024/01/12 09:11:50;;;;;;;14.97;8.87;;;-0.30;99.90;;;;;;5016319;28;20933;-60
2024/01/12 09:14:18;;;;;;;14.97;8.07;;;-0.20;99.90;;;;;;5017359;28;20464;-60
2024/01/12 09:16:46;;;;;;;14.23;7.90;;;-0.20;99.90;;;;;;5017321;28;20868;-61
2024/01/12 09:19:17;;;;;;;18.30;8.20;;;-0.10;99.90;;;;;;5016756;28;20475;-60
2024/01/12 09:21:45;;;;;;;17.57;9.00;;;-0.10;99.90;;;;;;5015144;28;20873;-60
2024/01/12 09:24:13;;;;;;;17.20;9.40;;;-0.10;99.90;;;;;;5017481;28;20806;-60
2024/01/12 09:26:42;;;;;;;18.17;9.00;;;0.00;99.90;;;;;;5015362;28;20499;-60
2024/01/12 09:29:10;;;;;;;13.10;8.57;;;0.00;99.90;;;;;;5017567;28;20471;-60
2024/01/12 09:31:38;;;;;;;14.73;8.27;;;0.10;99.90;;;;;;5017022;28;20553;-60
2024/01/12 09:34:06;;;;;;;23.63;9.83;;;0.10;99.90;;;;;;5016685;28;20476;-60
2024/01/12 09:36:36;;;;;;;18.40;8.97;;;0.10;99.90;;;;;;5014909;28;20570;-59
2024/01/12 09:39:04;;;;;;;15.33;8.70;;;0.20;99.90;;;;;;5014702;28;20512;-61
2024/01/12 09:41:39;;;;;;;17.20;9.10;;;0.20;99.90;;;;;;5017118;28;20491;-60
2024/01/12 09:44:08;;;;;;;14.30;8.40;;;0.20;99.90;;;;;;5016936;28;20476;-59
2024/01/12 09:46:41;;;;;;;13.43;8.17;;;0.30;99.90;;;;;;5014196;28;20574;-60
2024/01/12 09:49:09;;;;;;;13.43;8.00;;;0.30;99.90;;;;;;5014754;28;20476;-60
2024/01/12 09:51:38;;;;;;;18.33;8.83;;;0.30;99.90;;;;;;5012423;28;20550;-60
2024/01/12 09:54:06;;;;;;;15.10;8.40;;;0.40;99.90;;;;;;5014272;28;20496;-60
2024/01/12 09:56:34;;;;;;;18.97;8.87;;;0.40;99.90;;;;;;5015323;28;20484;-60
2024/01/12 09:59:12;;;;;;;16.47;9.30;;;0.40;99.90;;;;;;5015617;28;20544;-58
2024/01/12 10:01:42;;;;;;;15.50;9.13;;;0.40;99.90;;;;;;5013147;28;20479;-60
2024/01/12 10:04:10;;;;;;;19.67;11.60;;;0.50;99.90;;;;;;5016192;28;20502;-59
2024/01/12 10:06:40;;;;;;;19.77;9.50;;;0.50;99.90;;;;;;5013677;28;20514;-58
2024/01/12 10:09:09;;;;;;;16.10;9.27;;;0.50;99.90;;;;;;5017107;28;20483;-58
2024/01/12 10:11:38;;;;;;;18.50;9.60;;;0.50;99.90;;;;;;5012496;28;20515;-58
2024/01/12 10:14:06;;;;;;;18.80;9.23;;;0.50;99.90;;;;;;5016896;28;20472;-58
2024/01/12 10:16:34;;;;;;;18.87;10.13;;;0.60;99.90;;;;;;5013806;28;20542;-60
2024/01/12 10:19:02;;;;;;;16.47;9.40;;;0.60;99.90;;;;;;5015559;28;20496;-58
2024/01/12 10:21:38;;;;;;;19.40;10.13;;;0.60;99.90;;;;;;5017051;28;21087;-59
2024/01/12 10:24:08;;;;;;;17.90;9.90;;;0.70;99.90;;;;;;5016879;28;21062;-59
2024/01/12 10:26:37;;;;;;;16.33;9.70;;;0.70;99.90;;;;;;5018590;28;20488;-60
2024/01/12 10:29:06;;;;;;;18.40;9.37;;;0.70;99.90;;;;;;5016084;28;20548;-60
2024/01/12 10:31:39;;;;;;;16.87;9.20;;;0.70;99.90;;;;;;5012660;28;20606;-59
2024/01/12 10:34:11;;;;;;;14.10;8.83;;;0.70;99.90;;;;;;5018565;28;21011;-59
2024/01/12 10:36:43;;;;;;;19.10;10.33;;;0.80;99.90;;;;;;5019084;28;20595;-59
2024/01/12 10:39:13;;;;;;;16.47;9.03;;;0.80;99.90;;;;;;5020664;28;20980;-59
2024/01/12 10:41:42;;;;;;;17.53;10.20;;;0.80;99.90;;;;;;5018443;28;20491;-59
2024/01/12 10:44:13;;;;;;;15.43;9.73;;;0.90;99.90;;;;;;5019458;28;21023;-59
2024/01/12 10:46:45;;;;;;;18.33;10.80;;;0.90;99.90;;;;;;5017983;28;20557;-59
2024/01/12 10:49:16;;;;;;;14.60;8.43;;;1.00;99.90;;;;;;5017948;28;20498;-60
2024/01/12 10:51:57;;;;;;;16.40;9.90;;;1.00;99.90;;;;;;5017468;28;20486;-59
2024/01/12 10:54:29;;;;;;;17.07;9.17;;;1.00;99.90;;;;;;5019879;28;20480;-59
2024/01/12 10:56:57;;;;;;;15.80;9.30;;;1.00;99.90;;;;;;5016879;28;20511;-59
2024/01/12 10:59:26;;;;;;;15.73;9.13;;;1.10;99.90;;;;;;5020273;28;20578;-59
2024/01/12 11:01:55;;;;;;;17.30;9.23;;;1.10;99.90;;;;;;5019445;28;20476;-60
2024/01/12 11:04:23;;;;;;;15.23;8.83;;;1.10;99.90;;;;;;5021738;28;20495;-58
2024/01/12 11:06:55;;;;;;;12.63;7.90;;;1.10;99.90;;;;;;5019814;28;20483;-58
2024/01/12 11:09:28;;;;;;;14.37;8.70;;;1.10;99.90;;;;;;5018011;28;20559;-59
2024/01/12 11:12:10;;;;;;;13.83;7.73;;;1.10;99.90;;;;;;5018682;28;21075;-58
2024/01/12 11:14:40;;;;;;;13.63;8.30;;;1.10;99.90;;;;;;5017766;28;20552;-59
2024/01/12 11:17:08;;;;;;;16.77;8.40;;;1.10;99.90;;;;;;5019577;28;20811;-59
2024/01/12 11:19:36;;;;;;;15.07;9.70;;;1.20;99.90;;;;;;5019287;28;20471;-57
2024/01/12 11:22:07;;;;;;;15.13;9.30;;;1.20;99.90;;;;;;5019859;28;20501;-59
2024/01/12 11:24:37;;;;;;;14.43;8.53;;;1.20;99.90;;;;;;5019128;28;20480;-59
2024/01/12 11:27:06;;;;;;;18.50;9.50;;;1.20;99.90;;;;;;5018723;28;20472;-60
2024/01/12 11:29:36;;;;;;;14.40;9.80;;;1.20;99.90;;;;;;5019210;28;20472;-60
2024/01/12 11:32:05;;;;;;;14.57;8.60;;;1.30;99.90;;;;;;5018615;28;20487;-58
2024/01/12 11:34:35;;;;;;;15.80;8.50;;;1.30;99.90;;;;;;5019779;28;20491;-59
2024/01/12 11:37:03;;;;;;;16.13;8.50;;;1.30;99.90;;;;;;5019487;28;21069;-61
2024/01/12 11:39:37;;;;;;;17.00;9.40;;;1.30;99.90;;;;;;5020540;28;20534;-59
2024/01/12 11:42:06;;;;;;;20.83;8.63;;;1.30;99.90;;;;;;5017648;28;20491;-60
2024/01/12 11:44:36;;;;;;;16.80;9.10;;;1.40;99.90;;;;;;5017684;28;20538;-59
2024/01/12 11:47:07;;;;;;;17.50;9.70;;;1.40;99.90;;;;;;5018176;28;20489;-59
2024/01/12 11:49:35;;;;;;;14.93;9.97;;;1.40;99.90;;;;;;5019061;28;20477;-59
2024/01/12 11:52:05;;;;;;;19.60;10.93;;;1.50;99.90;;;;;;5018342;28;20586;-58
2024/01/12 11:54:33;;;;;;;18.50;10.10;;;1.50;99.90;;;;;;5015787;28;20482;-59
2024/01/12 11:57:03;;;;;;;19.10;10.30;;;1.60;99.90;;;;;;5017016;28;21001;-60
2024/01/12 11:59:35;;;;;;;14.30;8.63;;;1.60;99.90;;;;;;5017155;28;21013;-59
2024/01/12 12:02:04;;;;;;;15.20;9.70;;;1.60;99.90;;;;;;5017938;28;21061;-59
2024/01/12 12:04:32;;;;;;;14.87;9.27;;;1.70;99.90;;;;;;5013894;28;20956;-59
2024/01/12 12:07:00;;;;;;;18.30;10.07;;;1.70;99.90;;;;;;5016498;28;20519;-59
2024/01/12 12:09:28;;;;;;;13.10;8.70;;;1.70;99.90;;;;;;5018730;28;21074;-60
2024/01/12 12:11:57;;;;;;;18.90;9.63;;;1.70;99.90;;;;;;5016838;28;20499;-60
2024/01/12 12:14:28;;;;;;;16.73;9.27;;;1.80;99.90;;;;;;5017427;28;20861;-60
2024/01/12 12:16:57;;;;;;;16.80;9.20;;;1.80;99.90;;;;;;5014889;28;20498;-59
2024/01/12 12:19:25;;;;;;;15.30;9.27;;;1.80;99.90;;;;;;5017090;28;20894;-59
2024/01/12 12:21:55;;;;;;;18.03;10.00;;;1.80;99.90;;;;;;5018770;28;20547;-58
2024/01/12 12:24:23;;;;;;;14.20;10.00;;;1.80;99.90;;;;;;5016439;28;20561;-61
2024/01/12 12:26:51;;;;;;;18.73;10.33;;;1.80;99.90;;;;;;5015365;28;21090;-60
2024/01/12 12:29:20;;;;;;;21.33;13.23;;;1.90;99.90;;;;;;5015990;28;20533;-60
2024/01/12 12:31:49;;;;;;;19.40;9.63;;;1.90;99.90;;;;;;5016849;28;20474;-60
2024/01/12 12:34:17;;;;;;;15.93;10.70;;;2.00;99.90;;;;;;5016459;28;20524;-59
2024/01/12 12:36:46;;;;;;;12.93;8.87;;;2.00;99.90;;;;;;5016916;28;20480;-58
2024/01/12 12:39:14;;;;;;;15.33;10.73;;;2.00;99.90;;;;;;5018190;28;21036;-59
2024/01/12 12:41:42;;;;;;;15.90;10.43;;;2.00;99.90;;;;;;5015276;28;20603;-59